Terminal Aerodrome Forecast
Issued by NWS

Home | Current Version | Previous Version | Text Only | Print | Product List | Glossary On
Versions: 1 2 3 4 5 6 7 8 9 10 11 12 13 14 15 16
000
FTUS42 KMLB 281700 RRA
TAFLEE
TAF
KLEE 281745Z 2818/2918 26011KT P6SM VCTS SCT040CB SCT060 SCT250
     FM282200 27009KT P6SM FEW040 SCT080 SCT250
     FM290100 24006KT P6SM SCT250
     FM291200 28010KT P6SM VCSH SCT040 BKN080 BKN250=

USA.gov is the U.S. government's official web portal to all federal, state and local government web resources and services.